Time;durP1;ratioP1;P1;durP2;ratioP2;P2;SDS_P1;SDS_P2;PMS_P1;PMS_P2;Temp;Humidity;BMP_temperature;BMP_pressure;BME280_temperature;BME280_humidity;BME280_pressure;Samples;Min_cycle;Max_cycle;Signal;HPM_P1;HPM_P2
2021/07/19 00:00:38;;;;;;;12.95;5.38;;;15.80;88.20;;;;;;5008495;28;20449;-69
2021/07/19 00:03:06;;;;;;;13.70;5.00;;;15.80;88.30;;;;;;5011580;28;20021;-69
2021/07/19 00:05:32;;;;;;;13.55;4.88;;;15.80;88.50;;;;;;5010673;28;20079;-69
2021/07/19 00:07:59;;;;;;;12.23;4.55;;;15.80;88.50;;;;;;5010208;28;20041;-70
2021/07/19 00:10:25;;;;;;;15.02;4.70;;;15.80;88.70;;;;;;5014022;28;20018;-69
2021/07/19 00:12:52;;;;;;;12.13;5.68;;;15.80;88.50;;;;;;5012570;28;20511;-69
2021/07/19 00:15:27;;;;;;;18.75;5.85;;;15.80;88.70;;;;;;5015812;28;20412;-69
2021/07/19 00:17:55;;;;;;;13.80;5.38;;;15.70;88.40;;;;;;5013773;28;20515;-69
2021/07/19 00:20:22;;;;;;;17.30;5.22;;;15.70;88.90;;;;;;5013432;28;20122;-70
2021/07/19 00:22:49;;;;;;;14.07;4.72;;;15.70;89.80;;;;;;5010879;28;20017;-69
2021/07/19 00:25:17;;;;;;;11.30;3.75;;;15.70;89.40;;;;;;5014230;28;20026;-69
2021/07/19 00:27:45;;;;;;;14.13;4.13;;;15.70;89.10;;;;;;5012894;28;20068;-69
2021/07/19 00:30:16;;;;;;;11.50;4.80;;;15.70;89.30;;;;;;5012448;28;20018;-69
2021/07/19 00:32:44;;;;;;;15.68;5.00;;;15.70;89.60;;;;;;5013972;28;20022;-69
2021/07/19 00:35:11;;;;;;;11.93;5.10;;;15.70;89.20;;;;;;5014418;28;20031;-69
2021/07/19 00:37:38;;;;;;;13.45;5.00;;;15.70;89.50;;;;;;5011800;28;20018;-69
2021/07/19 00:40:17;;;;;;;11.32;4.45;;;15.70;90.00;;;;;;5015308;28;20018;-69
2021/07/19 00:42:46;;;;;;;14.82;4.03;;;15.60;89.40;;;;;;5014339;28;20044;-70
2021/07/19 00:45:17;;;;;;;10.93;4.25;;;15.70;89.50;;;;;;5011395;28;20054;-69
2021/07/19 00:47:45;;;;;;;13.48;4.50;;;15.70;89.60;;;;;;5011431;28;20189;-69
2021/07/19 00:50:13;;;;;;;11.13;4.65;;;15.70;89.60;;;;;;5013402;28;20073;-69
2021/07/19 00:52:40;;;;;;;10.88;4.28;;;15.70;89.40;;;;;;5012971;28;20024;-68
2021/07/19 00:55:09;;;;;;;14.13;5.00;;;15.60;89.80;;;;;;5014273;28;20088;-69
2021/07/19 00:57:38;;;;;;;13.35;4.88;;;15.60;89.50;;;;;;5011822;28;20564;-72
2021/07/19 01:00:09;;;;;;;15.07;4.35;;;15.60;89.70;;;;;;5011814;28;20669;-69
2021/07/19 01:02:42;;;;;;;14.02;6.28;;;15.50;89.20;;;;;;5015936;28;20053;-70
2021/07/19 01:05:10;;;;;;;10.07;5.13;;;15.50;88.90;;;;;;5011511;28;20516;-68
2021/07/19 01:07:39;;;;;;;15.60;5.43;;;15.50;88.90;;;;;;5013175;28;20033;-69
2021/07/19 01:10:14;;;;;;;13.23;5.18;;;15.50;88.80;;;;;;5011661;28;20373;-69
2021/07/19 01:12:52;;;;;;;20.10;6.28;;;15.40;88.80;;;;;;5011666;28;20028;-69
2021/07/19 01:15:21;;;;;;;10.20;5.75;;;15.40;88.70;;;;;;5011648;28;20448;-69
2021/07/19 01:17:48;;;;;;;18.70;6.43;;;15.40;88.80;;;;;;5010788;28;20045;-69
2021/07/19 01:20:16;;;;;;;9.80;5.93;;;15.40;88.50;;;;;;5013775;28;20022;-69
2021/07/19 01:22:45;;;;;;;20.23;6.72;;;15.30;88.40;;;;;;5012055;28;20686;-69
2021/07/19 01:25:50;;;;;;;16.88;7.53;;;15.30;88.10;;;;;;5013377;28;20026;-69
2021/07/19 01:28:31;;;;;;;21.40;7.40;;;15.20;87.50;;;;;;5011373;28;20050;-69
2021/07/19 01:31:02;;;;;;;10.70;5.13;;;15.20;87.20;;;;;;5010187;28;20022;-69
2021/07/19 01:33:30;;;;;;;16.80;4.80;;;15.20;87.30;;;;;;5012448;28;20018;-70
2021/07/19 01:35:59;;;;;;;11.77;5.18;;;15.10;88.40;;;;;;5012632;28;20551;-69
2021/07/19 01:38:27;;;;;;;11.48;5.13;;;15.20;89.10;;;;;;5012153;28;20509;-69
2021/07/19 01:40:56;;;;;;;10.55;5.07;;;15.20;89.10;;;;;;5013109;28;20018;-69
2021/07/19 01:43:23;;;;;;;11.70;5.35;;;15.10;88.50;;;;;;5012153;28;20361;-69
2021/07/19 01:45:50;;;;;;;16.25;4.57;;;15.10;88.40;;;;;;5011571;28;20025;-69
2021/07/19 01:48:18;;;;;;;14.80;4.65;;;15.20;89.00;;;;;;5011299;28;20148;-69
2021/07/19 01:50:46;;;;;;;11.18;4.63;;;15.20;89.50;;;;;;5010772;28;20083;-69
2021/07/19 01:53:14;;;;;;;12.30;5.85;;;15.20;89.20;;;;;;5011882;28;20608;-70
2021/07/19 01:55:41;;;;;;;9.07;4.60;;;15.20;89.20;;;;;;5011434;28;20025;-69
2021/07/19 01:58:08;;;;;;;12.02;4.82;;;15.20;88.90;;;;;;5011939;28;20029;-69
2021/07/19 02:00:35;;;;;;;15.95;7.88;;;15.20;89.40;;;;;;5011215;28;20029;-69
2021/07/19 02:03:01;;;;;;;15.55;5.90;;;15.20;89.70;;;;;;5012288;28;20038;-69
2021/07/19 02:05:28;;;;;;;14.30;4.90;;;15.10;89.70;;;;;;5010894;28;20018;-69
2021/07/19 02:08:34;;;;;;;13.82;4.43;;;15.10;89.30;;;;;;5010094;28;20037;-69
2021/07/19 02:11:43;;;;;;;13.95;4.45;;;15.10;89.90;;;;;;5010851;28;20026;-69
2021/07/19 02:14:49;;;;;;;9.05;3.80;;;15.10;90.00;;;;;;5011199;28;20121;-69
2021/07/19 02:17:55;;;;;;;14.32;4.78;;;15.10;90.10;;;;;;5009961;28;20029;-69
2021/07/19 02:21:01;;;;;;;12.10;5.25;;;15.10;90.10;;;;;;5011304;28;20037;-69
2021/07/19 02:24:07;;;;;;;12.65;5.68;;;15.10;90.00;;;;;;5010613;28;20080;-69
2021/07/19 02:27:13;;;;;;;14.38;5.32;;;15.00;89.90;;;;;;5010575;28;20038;-68
2021/07/19 02:30:19;;;;;;;14.15;5.57;;;15.00;90.00;;;;;;5010765;28;20096;-69
2021/07/19 02:32:56;;;;;;;14.75;4.50;;;15.00;90.20;;;;;;5008883;28;20385;-69
2021/07/19 02:35:26;;;;;;;12.93;4.60;;;15.00;90.30;;;;;;5011866;28;20026;-68
2021/07/19 02:37:58;;;;;;;17.35;4.30;;;15.00;90.50;;;;;;5010225;28;20361;-69
2021/07/19 02:40:26;;;;;;;13.48;5.40;;;15.00;90.30;;;;;;5011021;28;20021;-68
2021/07/19 02:42:59;;;;;;;16.77;5.07;;;15.00;90.20;;;;;;5011836;28;20384;-69
2021/07/19 02:45:28;;;;;;;11.18;4.40;;;15.00;90.00;;;;;;5009365;28;20470;-69
2021/07/19 02:47:55;;;;;;;11.43;4.43;;;15.00;89.60;;;;;;5010067;28;20113;-68
2021/07/19 02:50:28;;;;;;;15.85;5.20;;;15.00;89.70;;;;;;5011838;28;20493;-69
2021/07/19 02:52:58;;;;;;;9.82;4.22;;;14.90;89.80;;;;;;5009581;28;20021;-69
2021/07/19 02:55:26;;;;;;;9.45;4.75;;;14.90;89.60;;;;;;5010365;28;20385;-70
2021/07/19 02:57:53;;;;;;;13.00;4.70;;;14.90;89.30;;;;;;5010032;28;20022;-70
2021/07/19 03:00:20;;;;;;;11.75;4.45;;;14.90;89.60;;;;;;5010842;28;20140;-69
2021/07/19 03:03:03;;;;;;;12.60;4.13;;;14.90;90.00;;;;;;5008863;28;20072;-69
2021/07/19 03:05:56;;;;;;;11.10;4.45;;;14.80;90.10;;;;;;5010656;28;20018;-69
2021/07/19 03:08:24;;;;;;;11.57;5.38;;;14.80;90.20;;;;;;5010176;28;20032;-69
2021/07/19 03:10:53;;;;;;;11.65;5.65;;;14.80;90.40;;;;;;5010364;28;20087;-69
2021/07/19 03:13:30;;;;;;;9.93;4.68;;;14.80;90.50;;;;;;5011067;28;20079;-70
2021/07/19 03:15:58;;;;;;;17.23;5.65;;;14.80;90.30;;;;;;5009426;28;20018;-70
2021/07/19 03:18:25;;;;;;;11.48;5.03;;;14.80;90.40;;;;;;5009455;28;20042;-70
2021/07/19 03:20:54;;;;;;;9.15;4.20;;;14.80;90.50;;;;;;5010608;28;20529;-70
2021/07/19 03:23:24;;;;;;;7.00;4.13;;;14.80;90.30;;;;;;5009102;28;20100;-70
2021/07/19 03:25:53;;;;;;;12.27;4.78;;;14.80;90.40;;;;;;5011034;28;20025;-71
2021/07/19 03:28:20;;;;;;;8.82;4.03;;;14.80;90.30;;;;;;5008929;28;20113;-70
2021/07/19 03:30:49;;;;;;;12.00;4.28;;;14.80;90.30;;;;;;5012027;28;20018;-70
2021/07/19 03:33:16;;;;;;;8.63;4.70;;;14.70;90.60;;;;;;5010377;28;20032;-70
2021/07/19 03:35:44;;;;;;;8.20;5.15;;;14.70;90.20;;;;;;5010083;28;20025;-69
2021/07/19 03:38:50;;;;;;;12.75;5.38;;;14.70;90.30;;;;;;5010888;28;20044;-70
2021/07/19 03:41:56;;;;;;;19.50;4.93;;;14.70;90.10;;;;;;5009597;28;20030;-70
2021/07/19 03:45:02;;;;;;;8.85;4.88;;;14.70;90.00;;;;;;5010113;28;20080;-70
2021/07/19 03:47:29;;;;;;;14.52;6.32;;;14.60;90.30;;;;;;5010795;28;20033;-69
2021/07/19 03:49:57;;;;;;;18.13;5.40;;;14.70;90.50;;;;;;5011415;28;20026;-70
2021/07/19 03:52:24;;;;;;;16.83;9.98;;;14.70;90.50;;;;;;5009848;28;20104;-69
2021/07/19 03:54:50;;;;;;;67.68;41.75;;;14.70;90.60;;;;;;5009212;28;20061;-69
2021/07/19 03:57:17;;;;;;;67.82;33.92;;;14.70;90.50;;;;;;5008926;28;20481;-70
2021/07/19 03:59:47;;;;;;;54.33;25.80;;;14.70;90.60;;;;;;5009838;28;20014;-69
2021/07/19 04:02:16;;;;;;;20.27;6.78;;;14.80;90.70;;;;;;5008685;28;20388;-69
2021/07/19 04:04:52;;;;;;;9.20;4.25;;;14.70;90.60;;;;;;5009786;28;20056;-70
2021/07/19 04:07:18;;;;;;;10.88;3.97;;;14.70;90.40;;;;;;5007367;28;20397;-68
2021/07/19 04:09:45;;;;;;;8.82;4.78;;;14.70;90.30;;;;;;5010115;28;20452;-68
2021/07/19 04:12:14;;;;;;;13.82;7.28;;;14.70;90.40;;;;;;5009163;28;20026;-69
2021/07/19 04:14:42;;;;;;;39.75;21.25;;;14.70;90.30;;;;;;5008436;28;20081;-68
2021/07/19 04:17:12;;;;;;;82.45;59.65;;;14.70;90.40;;;;;;5008549;28;20022;-69
2021/07/19 04:19:38;;;;;;;30.02;14.15;;;14.70;90.30;;;;;;5007815;28;20049;-69
2021/07/19 04:22:06;;;;;;;16.65;8.10;;;14.70;90.00;;;;;;5009226;28;20026;-69
2021/07/19 04:24:33;;;;;;;14.43;4.53;;;14.70;89.80;;;;;;5010057;28;20045;-70
2021/07/19 04:27:00;;;;;;;13.82;5.18;;;14.60;89.60;;;;;;5011790;28;20041;-68
2021/07/19 04:29:26;;;;;;;10.57;4.82;;;14.60;90.10;;;;;;5009668;28;20049;-68
2021/07/19 04:31:57;;;;;;;13.65;5.22;;;14.60;90.20;;;;;;5009453;28;20468;-68
2021/07/19 04:34:30;;;;;;;16.45;4.50;;;14.50;90.20;;;;;;5011406;28;20373;-69
2021/07/19 04:37:03;;;;;;;13.63;6.28;;;14.50;90.50;;;;;;5008177;28;20028;-67
2021/07/19 04:39:29;;;;;;;8.50;4.05;;;14.60;90.30;;;;;;5009846;28;20026;-68
2021/07/19 04:41:56;;;;;;;13.90;5.35;;;14.50;90.20;;;;;;5008437;28;20029;-70
2021/07/19 04:44:23;;;;;;;12.27;4.15;;;14.50;90.00;;;;;;5009583;28;20434;-68
2021/07/19 04:46:54;;;;;;;12.50;3.88;;;14.50;90.00;;;;;;5008709;28;20064;-68
2021/07/19 04:49:21;;;;;;;13.20;3.97;;;14.50;89.90;;;;;;5009692;28;20042;-72
2021/07/19 04:51:48;;;;;;;11.90;3.55;;;14.50;89.90;;;;;;5009072;28;20034;-72
2021/07/19 04:54:21;;;;;;;8.52;4.13;;;14.50;90.00;;;;;;5009312;28;20032;-68
2021/07/19 04:56:50;;;;;;;11.35;4.65;;;14.50;90.00;;;;;;5013627;28;20092;-69
2021/07/19 04:59:19;;;;;;;16.23;4.30;;;14.50;90.30;;;;;;5011738;28;20026;-69
2021/07/19 05:01:49;;;;;;;16.30;4.13;;;14.40;90.40;;;;;;5010234;28;20366;-69
2021/07/19 05:04:55;;;;;;;10.32;5.00;;;14.50;90.40;;;;;;5013702;28;20022;-68
2021/07/19 05:08:01;;;;;;;12.82;3.42;;;14.50;90.30;;;;;;5013278;28;20190;-68
2021/07/19 05:11:07;;;;;;;15.45;4.50;;;14.50;90.20;;;;;;5014089;28;20489;-68
2021/07/19 05:14:13;;;;;;;10.77;3.75;;;14.50;90.10;;;;;;5012630;28;20030;-69
2021/07/19 05:17:19;;;;;;;10.45;3.65;;;14.50;90.10;;;;;;5012179;28;20064;-68
2021/07/19 05:20:31;;;;;;;13.35;5.13;;;14.50;90.00;;;;;;5010647;28;20025;-68
2021/07/19 05:23:44;;;;;;;12.25;4.95;;;14.50;90.10;;;;;;5011867;28;20029;-68
2021/07/19 05:26:50;;;;;;;6.03;3.45;;;14.40;89.70;;;;;;5011968;28;20505;-67
2021/07/19 05:29:56;;;;;;;14.05;4.47;;;14.40;89.10;;;;;;5011756;28;20080;-69
2021/07/19 05:33:02;;;;;;;7.57;3.30;;;14.30;88.80;;;;;;5011907;28;20018;-68
2021/07/19 05:35:29;;;;;;;8.98;4.03;;;14.30;88.90;;;;;;5010684;28;20079;-68
2021/07/19 05:37:56;;;;;;;11.32;3.75;;;14.30;89.10;;;;;;5010388;28;20030;-68
2021/07/19 05:40:23;;;;;;;8.68;3.55;;;14.30;89.30;;;;;;5011602;28;20021;-68
2021/07/19 05:42:50;;;;;;;8.40;3.05;;;14.30;89.70;;;;;;5009921;28;20026;-68
2021/07/19 05:45:17;;;;;;;8.57;4.15;;;14.30;90.10;;;;;;5011604;28;20116;-68
2021/07/19 05:47:44;;;;;;;10.43;3.55;;;14.30;90.30;;;;;;5011440;28;20069;-68
2021/07/19 05:50:11;;;;;;;11.07;3.15;;;14.30;90.30;;;;;;5011291;28;20064;-70
2021/07/19 05:52:39;;;;;;;5.57;3.45;;;14.30;90.20;;;;;;5011715;28;20033;-68
2021/07/19 05:55:07;;;;;;;11.63;2.90;;;14.30;90.40;;;;;;5010419;28;20053;-69
2021/07/19 05:57:33;;;;;;;8.27;3.28;;;14.30;90.40;;;;;;5011663;28;20037;-68
2021/07/19 06:00:00;;;;;;;7.65;1.95;;;14.30;90.40;;;;;;5008816;28;20037;-68
2021/07/19 06:02:28;;;;;;;11.23;3.92;;;14.40;90.50;;;;;;5011043;28;20069;-68
2021/07/19 06:05:34;;;;;;;12.32;4.72;;;14.30;90.60;;;;;;5011505;28;20037;-69
2021/07/19 06:08:40;;;;;;;8.57;3.35;;;14.40;90.70;;;;;;5009012;28;20765;-67
2021/07/19 06:11:46;;;;;;;10.13;2.58;;;14.30;90.60;;;;;;5010600;28;20026;-67
2021/07/19 06:14:52;;;;;;;32.45;21.77;;;14.30;90.60;;;;;;5009407;28;20033;-68
2021/07/19 06:17:58;;;;;;;19.83;13.10;;;14.40;90.60;;;;;;5000923;28;20034;-68
2021/07/19 06:20:46;;;;;;;10.73;4.78;;;14.40;90.60;;;;;;5002719;28;20841;-68
2021/07/19 06:23:13;;;;;;;10.00;3.88;;;14.40;90.60;;;;;;5004485;28;20084;-68
2021/07/19 06:25:41;;;;;;;13.07;3.70;;;14.40;90.60;;;;;;5007007;28;20022;-68
2021/07/19 06:28:12;;;;;;;11.80;3.65;;;14.40;90.70;;;;;;5007418;28;20077;-68
2021/07/19 06:30:39;;;;;;;10.57;3.45;;;14.40;90.70;;;;;;5008739;28;20093;-68
2021/07/19 06:33:05;;;;;;;7.60;2.63;;;14.50;90.80;;;;;;5010237;28;20501;-68
2021/07/19 06:35:35;;;;;;;6.00;3.00;;;14.50;90.90;;;;;;5009432;28;20057;-68
2021/07/19 06:38:01;;;;;;;11.57;4.40;;;14.60;91.20;;;;;;5005051;28;20557;-68
2021/07/19 06:40:28;;;;;;;7.65;3.50;;;14.60;91.10;;;;;;5008245;28;20036;-68
2021/07/19 06:42:54;;;;;;;11.23;3.92;;;14.70;91.20;;;;;;5007787;28;20052;-68
2021/07/19 06:45:21;;;;;;;17.88;4.40;;;14.70;91.20;;;;;;5010326;28;20087;-68
2021/07/19 06:47:47;;;;;;;9.00;3.38;;;14.70;91.20;;;;;;5003121;28;20069;-68
2021/07/19 06:50:14;;;;;;;8.60;3.75;;;14.80;91.20;;;;;;5005528;28;20079;-67
2021/07/19 06:52:42;;;;;;;11.70;4.15;;;14.80;91.30;;;;;;5008149;28;20520;-67
2021/07/19 06:55:09;;;;;;;7.97;2.75;;;14.90;91.30;;;;;;5007679;28;20018;-67
2021/07/19 06:57:36;;;;;;;7.32;3.25;;;14.90;91.30;;;;;;5004308;28;20018;-68
2021/07/19 07:00:07;;;;;;;5.20;3.30;;;15.00;91.40;;;;;;5005749;28;20168;-67
2021/07/19 07:02:33;;;;;;;6.78;3.25;;;15.00;91.50;;;;;;5008026;28;20029;-67
2021/07/19 07:05:00;;;;;;;7.18;3.42;;;15.00;91.50;;;;;;5006849;28;20517;-68
2021/07/19 07:07:27;;;;;;;8.30;3.25;;;15.10;91.40;;;;;;5007921;28;20117;-68
2021/07/19 07:09:53;;;;;;;7.05;2.67;;;15.10;91.40;;;;;;5006124;28;20033;-68
2021/07/19 07:12:23;;;;;;;6.10;2.10;;;15.10;91.30;;;;;;5006494;28;20778;-68
2021/07/19 07:14:49;;;;;;;5.13;2.42;;;15.20;91.30;;;;;;5006542;28;20504;-68
2021/07/19 07:17:16;;;;;;;9.73;2.90;;;15.20;91.30;;;;;;5006019;28;20048;-69
2021/07/19 07:19:43;;;;;;;9.27;2.65;;;15.20;91.30;;;;;;5005764;28;20018;-68
2021/07/19 07:22:09;;;;;;;5.38;3.00;;;15.20;91.30;;;;;;5006044;28;20026;-68
2021/07/19 07:24:41;;;;;;;7.65;2.20;;;15.20;91.30;;;;;;5006115;28;20468;-68
2021/07/19 07:27:11;;;;;;;7.88;2.58;;;15.20;91.30;;;;;;5008819;28;20066;-68
2021/07/19 07:29:39;;;;;;;8.43;2.00;;;15.30;91.40;;;;;;5003869;28;20389;-68
2021/07/19 07:32:06;;;;;;;11.10;2.85;;;15.30;91.30;;;;;;5009466;28;20036;-68
2021/07/19 07:34:33;;;;;;;8.55;2.38;;;15.30;91.10;;;;;;5008089;28;20144;-68
2021/07/19 07:36:59;;;;;;;12.18;3.35;;;15.40;91.40;;;;;;5007004;28;20368;-68
2021/07/19 07:39:26;;;;;;;5.22;2.40;;;15.40;91.40;;;;;;5002130;28;20018;-69
2021/07/19 07:41:55;;;;;;;7.68;2.17;;;15.40;91.40;;;;;;5006805;28;20024;-68
2021/07/19 07:44:22;;;;;;;3.80;2.20;;;15.40;91.40;;;;;;5010249;28;20037;-68
2021/07/19 07:46:49;;;;;;;54.67;39.70;;;15.50;91.40;;;;;;5007090;28;20041;-69
2021/07/19 07:49:15;;;;;;;69.68;45.30;;;15.50;91.40;;;;;;5006877;28;20040;-69
2021/07/19 07:51:42;;;;;;;48.22;32.45;;;15.60;91.40;;;;;;5006190;28;20017;-68
2021/07/19 07:54:08;;;;;;;34.88;25.17;;;15.60;91.50;;;;;;5009393;28;20030;-68
2021/07/19 07:56:35;;;;;;;14.23;7.28;;;15.70;91.50;;;;;;5008251;28;20022;-68
2021/07/19 07:59:01;;;;;;;11.88;2.75;;;15.70;91.30;;;;;;5006497;28;20038;-68
2021/07/19 08:01:28;;;;;;;7.18;2.90;;;15.70;91.30;;;;;;5005755;28;20519;-68
2021/07/19 08:03:54;;;;;;;10.70;2.97;;;15.80;91.20;;;;;;5007788;28;20026;-68
2021/07/19 08:06:21;;;;;;;10.25;2.92;;;15.80;91.00;;;;;;5007312;28;20029;-68
2021/07/19 08:08:47;;;;;;;7.13;1.67;;;15.90;90.80;;;;;;5004859;28;20038;-68
2021/07/19 08:11:14;;;;;;;4.32;1.67;;;16.00;90.90;;;;;;5008805;28;20061;-68
2021/07/19 08:13:40;;;;;;;8.80;2.65;;;16.10;90.90;;;;;;5006841;28;20113;-69
2021/07/19 08:16:07;;;;;;;6.30;2.17;;;16.20;90.80;;;;;;5008700;28;20018;-68
2021/07/19 08:18:33;;;;;;;5.68;1.48;;;16.30;90.70;;;;;;5004999;28;20065;-68
2021/07/19 08:21:00;;;;;;;3.72;1.02;;;16.40;90.50;;;;;;5007770;28;20021;-68
2021/07/19 08:23:27;;;;;;;6.43;2.05;;;16.50;90.20;;;;;;5006852;28;20101;-68
2021/07/19 08:25:53;;;;;;;13.77;3.63;;;16.60;90.20;;;;;;5007483;28;20021;-69
2021/07/19 08:28:20;;;;;;;21.60;11.73;;;16.70;90.30;;;;;;5005897;28;20610;-69
2021/07/19 08:30:46;;;;;;;93.18;66.82;;;16.80;90.20;;;;;;5010826;28;20432;-69
2021/07/19 08:33:13;;;;;;;117.30;75.25;;;16.80;90.10;;;;;;5011772;28;20025;-68
2021/07/19 08:35:39;;;;;;;97.60;73.18;;;16.90;90.00;;;;;;5010496;28;20093;-69
2021/07/19 08:38:06;;;;;;;34.67;23.05;;;17.00;89.80;;;;;;5007137;28;20022;-69
2021/07/19 08:40:33;;;;;;;27.83;16.63;;;17.00;89.30;;;;;;5012046;28;20024;-69
2021/07/19 08:43:01;;;;;;;13.07;8.02;;;17.00;89.20;;;;;;5011328;28;20091;-70
2021/07/19 08:45:28;;;;;;;12.48;6.35;;;17.00;89.00;;;;;;5013367;28;20033;-70
2021/07/19 08:47:54;;;;;;;7.88;5.10;;;16.90;88.80;;;;;;5007319;28;20960;-69
2021/07/19 08:50:22;;;;;;;10.93;4.95;;;17.00;88.70;;;;;;5012946;28;20113;-69
2021/07/19 08:52:54;;;;;;;9.43;5.13;;;16.90;88.50;;;;;;5013324;28;20014;-69
2021/07/19 08:55:22;;;;;;;18.23;7.40;;;16.90;88.50;;;;;;5012896;28;20044;-69
2021/07/19 08:57:49;;;;;;;11.05;6.03;;;16.90;88.60;;;;;;5009317;28;20040;-69
2021/07/19 09:00:18;;;;;;;8.38;5.18;;;16.90;88.90;;;;;;5010514;28;20026;-69
2021/07/19 09:02:45;;;;;;;12.40;5.07;;;16.80;89.10;;;;;;5013129;28;20022;-69
2021/07/19 09:05:12;;;;;;;16.15;4.13;;;16.90;89.30;;;;;;5010474;28;20079;-69
2021/07/19 09:07:39;;;;;;;10.30;4.85;;;16.90;89.50;;;;;;5009781;28;20029;-69
2021/07/19 09:10:07;;;;;;;13.43;3.65;;;16.90;89.50;;;;;;5010137;28;20022;-69
2021/07/19 09:12:42;;;;;;;7.60;3.40;;;17.00;89.10;;;;;;5009545;28;20068;-69
2021/07/19 09:15:12;;;;;;;3.63;3.33;;;17.00;89.00;;;;;;5006607;28;20417;-68
2021/07/19 09:17:39;;;;;;;7.05;2.75;;;17.10;88.80;;;;;;5010762;28;20142;-67
2021/07/19 09:20:13;;;;;;;105.78;78.20;;;17.20;88.30;;;;;;5010518;28;20389;-68
2021/07/19 09:22:40;;;;;;;33.08;21.17;;;17.30;87.40;;;;;;5009710;28;20455;-69
2021/07/19 09:25:15;;;;;;;10.68;5.70;;;17.40;86.80;;;;;;5001649;28;20030;-69
2021/07/19 09:28:24;;;;;;;8.30;2.15;;;17.50;85.90;;;;;;5005664;28;20385;-69
2021/07/19 09:31:30;;;;;;;6.15;1.83;;;17.60;84.90;;;;;;5007218;28;20120;-69
2021/07/19 09:33:58;;;;;;;6.00;3.30;;;17.70;84.40;;;;;;5009699;28;20544;-68
2021/07/19 09:36:24;;;;;;;10.23;1.50;;;17.80;81.60;;;;;;5007845;28;20033;-68
2021/07/19 09:39:07;;;;;;;4.40;2.08;;;17.90;81.00;;;;;;5007475;28;20517;-68
2021/07/19 09:41:35;;;;;;;6.65;1.50;;;17.90;80.80;;;;;;5007246;28;20411;-68
2021/07/19 09:44:07;;;;;;;4.85;1.15;;;18.00;79.60;;;;;;5007171;28;20899;-68
2021/07/19 09:46:35;;;;;;;3.67;1.63;;;18.00;79.20;;;;;;5009847;28;20049;-68
2021/07/19 09:49:02;;;;;;;22.40;16.00;;;18.10;78.30;;;;;;5007137;28;20533;-69
2021/07/19 09:51:32;;;;;;;16.75;10.20;;;18.20;78.30;;;;;;5007495;28;20469;-69
2021/07/19 09:54:12;;;;;;;8.68;3.70;;;18.30;78.10;;;;;;5008649;28;20041;-69
2021/07/19 09:56:40;;;;;;;8.90;2.92;;;18.40;77.30;;;;;;5008006;28;20405;-68
2021/07/19 09:59:15;;;;;;;6.60;2.08;;;18.50;77.10;;;;;;5009547;28;20029;-68
2021/07/19 10:01:43;;;;;;;5.68;2.08;;;18.50;76.90;;;;;;5005917;28;20030;-67
2021/07/19 10:04:15;;;;;;;4.50;1.38;;;18.60;76.70;;;;;;5008566;28;20025;-68
2021/07/19 10:06:44;;;;;;;6.43;2.75;;;18.70;76.70;;;;;;5008762;28;20022;-68
2021/07/19 10:09:12;;;;;;;5.95;2.03;;;18.80;76.60;;;;;;5010240;28;20037;-69
2021/07/19 10:11:43;;;;;;;8.48;2.13;;;18.90;76.30;;;;;;5007976;28;20053;-68
2021/07/19 10:14:10;;;;;;;26.83;17.42;;;18.90;75.80;;;;;;5012592;28;20388;-68
2021/07/19 10:16:37;;;;;;;7.28;3.15;;;19.10;75.10;;;;;;5009800;28;20024;-70
2021/07/19 10:19:05;;;;;;;6.80;1.90;;;19.10;73.30;;;;;;5008684;28;20058;-71
2021/07/19 10:21:34;;;;;;;7.38;1.80;;;19.10;72.50;;;;;;5012042;28;20068;-70
2021/07/19 10:24:40;;;;;;;3.30;0.90;;;19.00;72.40;;;;;;5010172;28;20108;-71
2021/07/19 10:27:46;;;;;;;4.93;1.85;;;18.90;70.60;;;;;;5010859;28;20133;-71
2021/07/19 10:30:53;;;;;;;4.40;1.30;;;18.80;71.10;;;;;;5003123;28;20109;-71
2021/07/19 10:33:59;;;;;;;4.32;1.77;;;18.80;71.00;;;;;;5008531;28;20121;-71
2021/07/19 10:37:12;;;;;;;4.93;1.90;;;18.80;71.40;;;;;;5008164;28;20785;-71
2021/07/19 10:40:18;;;;;;;3.55;1.67;;;18.80;71.90;;;;;;5007235;28;20037;-70
2021/07/19 10:43:29;;;;;;;6.55;2.40;;;18.80;72.70;;;;;;5008994;28;20033;-71
2021/07/19 10:46:36;;;;;;;11.63;2.85;;;18.80;73.30;;;;;;5007096;28;20053;-71
2021/07/19 10:49:43;;;;;;;6.13;1.90;;;18.70;74.00;;;;;;5006790;28;20034;-71
2021/07/19 10:52:49;;;;;;;9.35;1.65;;;18.60;74.20;;;;;;5006879;28;20078;-71
2021/07/19 10:56:05;;;;;;;7.38;1.48;;;18.50;73.50;;;;;;5006793;28;20485;-71
2021/07/19 10:58:39;;;;;;;8.63;0.85;;;18.30;70.20;;;;;;5004876;28;20095;-71
2021/07/19 11:01:06;;;;;;;4.70;1.00;;;18.30;70.60;;;;;;5008231;28;20030;-71
2021/07/19 11:03:42;;;;;;;6.68;1.73;;;18.30;70.50;;;;;;5011724;28;20037;-71
2021/07/19 11:06:56;;;;;;;4.55;2.00;;;18.20;70.90;;;;;;5007436;28;20033;-71
2021/07/19 11:10:02;;;;;;;3.47;1.17;;;18.20;71.80;;;;;;5010244;28;20042;-71
2021/07/19 11:12:49;;;;;;;3.58;1.95;;;18.20;71.70;;;;;;5011152;28;20040;-71
2021/07/19 11:15:55;;;;;;;11.40;2.15;;;18.10;72.30;;;;;;5008261;28;20025;-71
2021/07/19 11:19:02;;;;;;;4.35;1.50;;;18.20;73.60;;;;;;5010596;28;20049;-71
2021/07/19 11:22:08;;;;;;;7.03;1.70;;;18.20;74.20;;;;;;5007909;28;20030;-71
2021/07/19 11:25:26;;;;;;;9.35;3.03;;;18.20;74.40;;;;;;5006499;28;20060;-71
2021/07/19 11:28:35;;;;;;;10.40;2.53;;;18.30;74.90;;;;;;5011627;28;20041;-71
2021/07/19 11:31:25;;;;;;;7.18;1.75;;;18.30;75.20;;;;;;5011607;28;20496;-71
2021/07/19 11:34:34;;;;;;;7.47;1.88;;;18.30;74.00;;;;;;5011410;28;20022;-71
2021/07/19 11:37:40;;;;;;;5.55;2.05;;;18.20;74.30;;;;;;5008728;28;20084;-71
2021/07/19 11:40:49;;;;;;;4.82;1.70;;;18.20;75.30;;;;;;5011301;28;20034;-71
2021/07/19 11:43:57;;;;;;;9.05;1.70;;;18.20;75.90;;;;;;5008934;28;20030;-71
2021/07/19 11:47:07;;;;;;;7.38;1.45;;;18.20;76.50;;;;;;5009293;28;20026;-74
2021/07/19 11:50:13;;;;;;;3.22;1.13;;;18.30;79.30;;;;;;5011393;28;20029;-69
2021/07/19 11:53:19;;;;;;;3.85;1.00;;;18.40;79.50;;;;;;5010328;28;20025;-70
2021/07/19 11:55:45;;;;;;;3.55;0.90;;;18.50;79.30;;;;;;5007651;28;20803;-68
2021/07/19 11:58:14;;;;;;;2.97;1.02;;;18.60;78.90;;;;;;5007495;28;20038;-71
2021/07/19 12:00:44;;;;;;;4.63;1.20;;;18.70;78.70;;;;;;5007592;28;20064;-71
2021/07/19 12:03:17;;;;;;;5.22;1.38;;;18.80;77.90;;;;;;5006864;28;20942;-70
2021/07/19 12:05:54;;;;;;;7.47;1.90;;;18.70;77.40;;;;;;5009494;28;20068;-69
2021/07/19 12:08:33;;;;;;;6.07;1.20;;;18.70;77.60;;;;;;5007726;28;20037;-70
2021/07/19 12:11:13;;;;;;;12.45;8.70;;;18.60;77.60;;;;;;5008735;28;20113;-70
2021/07/19 12:13:44;;;;;;;8.18;4.13;;;18.60;77.50;;;;;;5009313;28;20560;-70
2021/07/19 12:16:12;;;;;;;8.13;6.03;;;18.50;77.70;;;;;;5008645;28;20065;-70
2021/07/19 12:18:41;;;;;;;3.95;1.38;;;18.50;78.00;;;;;;5007937;28;20060;-70
2021/07/19 12:21:13;;;;;;;4.32;1.20;;;18.50;78.20;;;;;;5007310;28;20018;-69
2021/07/19 12:23:45;;;;;;;1.40;1.25;;;18.40;78.40;;;;;;5007422;28;20014;-72
2021/07/19 12:26:15;;;;;;;6.25;2.33;;;18.40;78.50;;;;;;5008038;28;20030;-72
2021/07/19 12:28:52;;;;;;;14.55;12.10;;;18.30;79.50;;;;;;5009243;28;20034;-69
2021/07/19 12:31:35;;;;;;;28.27;21.00;;;18.20;79.90;;;;;;5008893;28;20037;-70
2021/07/19 12:34:05;;;;;;;5.22;3.47;;;18.20;80.80;;;;;;5009132;28;20141;-70
2021/07/19 12:36:32;;;;;;;3.50;2.42;;;18.20;81.60;;;;;;5011224;28;20032;-69
2021/07/19 12:38:59;;;;;;;4.90;2.72;;;18.20;82.10;;;;;;5008285;28;20033;-69
2021/07/19 12:41:26;;;;;;;4.55;2.63;;;18.20;82.60;;;;;;5008540;28;20109;-69
2021/07/19 12:43:52;;;;;;;3.13;2.58;;;18.20;83.30;;;;;;5010717;28;20386;-70
2021/07/19 12:46:19;;;;;;;5.80;3.40;;;18.20;84.10;;;;;;5008717;28;20010;-69
2021/07/19 12:48:49;;;;;;;4.72;2.00;;;18.10;84.70;;;;;;5008381;28;20460;-70
2021/07/19 12:51:25;;;;;;;4.10;1.75;;;18.10;85.30;;;;;;5008044;28;20030;-70
2021/07/19 12:54:02;;;;;;;3.08;1.33;;;18.10;86.60;;;;;;5007607;28;20025;-70
2021/07/19 12:56:29;;;;;;;4.80;3.85;;;18.00;85.70;;;;;;5008169;28;21120;-69
2021/07/19 12:58:58;;;;;;;2.83;1.40;;;17.90;85.00;;;;;;5008127;28;20037;-68
2021/07/19 13:01:37;;;;;;;3.30;0.90;;;17.80;85.30;;;;;;5009629;28;20061;-68
2021/07/19 13:04:18;;;;;;;2.13;1.10;;;17.70;85.80;;;;;;5006592;28;20049;-68
2021/07/19 13:06:45;;;;;;;3.47;1.55;;;17.60;86.10;;;;;;5009651;28;20052;-68
2021/07/19 13:09:18;;;;;;;3.92;1.38;;;17.50;86.40;;;;;;5012900;28;20096;-69
2021/07/19 13:11:46;;;;;;;2.78;1.23;;;17.40;86.60;;;;;;5008705;28;20057;-68
2021/07/19 13:14:15;;;;;;;4.47;1.80;;;17.30;86.60;;;;;;5008929;28;20021;-68
2021/07/19 13:16:55;;;;;;;30.08;22.27;;;17.30;87.20;;;;;;5009213;28;20018;-69
2021/07/19 13:19:42;;;;;;;7.72;4.10;;;17.20;87.60;;;;;;5011695;28;20044;-69
2021/07/19 13:22:11;;;;;;;5.45;2.17;;;17.10;87.60;;;;;;5011267;28;20477;-69
2021/07/19 13:24:44;;;;;;;5.35;2.35;;;17.00;87.60;;;;;;5011350;28;20048;-69